createdAt,value
2017-03-05T00:00:39.646Z,9.54
2017-03-05T00:01:39.255Z,9.62
2017-03-05T00:02:39.207Z,9.64
2017-03-05T00:03:39.215Z,9.65
2017-03-05T00:04:39.561Z,9.71
2017-03-05T00:05:39.595Z,9.71
2017-03-05T00:06:39.503Z,9.65
2017-03-05T00:07:39.511Z,9.75
2017-03-05T00:08:39.093Z,9.67
2017-03-05T00:09:39.065Z,9.71
2017-03-05T00:10:39.491Z,9.71
2017-03-05T00:11:39.412Z,9.67
2017-03-05T00:12:39.440Z,9.7
2017-03-05T00:13:38.584Z,9.64
2017-03-05T00:14:39.349Z,9.75
2017-03-05T00:15:39.012Z,9.92
2017-03-05T00:16:39.299Z,9.68
2017-03-05T00:17:39.292Z,9.74
2017-03-05T00:18:39.278Z,9.72
2017-03-05T00:19:39.277Z,9.75
2017-03-05T00:20:38.458Z,9.87
2017-03-05T00:21:38.825Z,9.85
2017-03-05T00:22:38.783Z,9.64
2017-03-05T00:23:38.385Z,9.54
2017-03-05T00:24:39.125Z,9.54
2017-03-05T00:25:39.124Z,9.62
2017-03-05T00:26:39.092Z,9.53
2017-03-05T00:27:38.688Z,9.53
2017-03-05T00:28:38.772Z,9.34
2017-03-05T00:29:39.064Z,9.49
2017-03-05T00:30:38.682Z,9.61
2017-03-05T00:31:39.026Z,9.52
2017-03-05T00:32:39.020Z,9.43
2017-03-05T00:33:38.951Z,9.64
2017-03-05T00:34:38.981Z,9.62
2017-03-05T00:35:38.525Z,9.6
2017-03-05T00:36:38.948Z,9.6
2017-03-05T00:37:38.096Z,9.6
2017-03-05T00:38:38.837Z,9.6
2017-03-05T00:39:38.441Z,9.62
2017-03-05T00:40:38.807Z,9.61
2017-03-05T00:41:38.394Z,9.47
2017-03-05T00:42:37.974Z,9.31
2017-03-05T00:43:38.774Z,9.42
2017-03-05T00:44:38.744Z,9.42
2017-03-05T00:45:38.303Z,9.34
2017-03-05T00:46:38.292Z,9.42
2017-03-05T00:47:38.247Z,9.43
2017-03-05T00:48:38.624Z,9.47
2017-03-05T00:49:38.613Z,9.6
2017-03-05T00:50:38.208Z,9.68
2017-03-05T00:51:38.182Z,9.64
2017-03-05T00:52:38.569Z,9.54
2017-03-05T00:53:38.127Z,9.45
2017-03-05T00:54:38.119Z,9.47
2017-03-05T00:55:38.489Z,9.49
2017-03-05T00:56:38.477Z,9.42
2017-03-05T00:57:38.066Z,9.46
2017-03-05T00:58:38.406Z,9.45
2017-03-05T00:59:38.025Z,9.38
2017-03-05T01:00:37.987Z,9.35
2017-03-05T01:01:38.365Z,9.42
2017-03-05T01:02:38.344Z,9.43
2017-03-05T01:03:38.322Z,9.45
2017-03-05T01:04:37.513Z,9.42
2017-03-05T01:05:37.873Z,9.5
2017-03-05T01:06:38.242Z,9.53
2017-03-05T01:07:37.866Z,9.47
2017-03-05T01:08:38.209Z,9.49
2017-03-05T01:09:38.190Z,9.54
2017-03-05T01:10:38.161Z,9.53
2017-03-05T01:11:37.760Z,9.43
2017-03-05T01:12:37.720Z,9.47
2017-03-05T01:13:37.308Z,9.6
2017-03-05T01:14:37.697Z,9.45
2017-03-05T01:15:37.663Z,9.6
2017-03-05T01:16:38.037Z,9.47
2017-03-05T01:17:38.015Z,9.37
2017-03-05T01:18:38.065Z,9.38
2017-03-05T01:19:37.964Z,9.45
2017-03-05T01:20:37.543Z,9.42
2017-03-05T01:21:37.534Z,9.38
2017-03-05T01:22:37.513Z,9.37
2017-03-05T01:23:37.870Z,9.31
2017-03-05T01:24:37.863Z,9.32
2017-03-05T01:25:37.432Z,9.35
2017-03-05T01:26:37.431Z,9.37
2017-03-05T01:27:37.010Z,9.37
2017-03-05T01:28:37.421Z,9.32
2017-03-05T01:29:37.368Z,9.31
2017-03-05T01:30:37.414Z,9.38
2017-03-05T01:31:36.931Z,9.35
2017-03-05T01:32:37.701Z,9.25
2017-03-05T01:33:37.676Z,9.34
2017-03-05T01:34:37.758Z,9.43
2017-03-05T01:35:37.617Z,9.38
2017-03-05T01:36:37.209Z,9.37
2017-03-05T01:37:37.195Z,9.4
2017-03-05T01:38:37.685Z,9.35
2017-03-05T01:39:37.546Z,9.45
2017-03-05T01:40:37.183Z,9.32
2017-03-05T01:41:37.122Z,9.37
2017-03-05T01:42:37.123Z,9.43
2017-03-05T01:43:37.063Z,9.46
2017-03-05T01:44:37.550Z,9.37
2017-03-05T01:45:37.017Z,9.29
2017-03-05T01:46:36.998Z,9.42
2017-03-05T01:47:37.373Z,9.35
2017-03-05T01:48:37.010Z,9.31
2017-03-05T01:49:36.561Z,9.38
2017-03-05T01:50:36.959Z,9.32
2017-03-05T01:51:36.912Z,9.37
2017-03-05T01:52:36.867Z,9.4
2017-03-05T01:53:36.863Z,9.29
2017-03-05T01:54:37.219Z,9.31
2017-03-05T01:55:36.803Z,9.32
2017-03-05T01:56:36.778Z,9.43
2017-03-05T01:57:37.166Z,9.45
2017-03-05T01:58:36.757Z,9.43
2017-03-05T01:59:36.744Z,9.54
2017-03-05T02:00:36.692Z,9.49
2017-03-05T02:01:37.061Z,9.47
2017-03-05T02:02:36.666Z,9.34
2017-03-05T02:03:37.152Z,9.35
2017-03-05T02:04:37.012Z,9.24
2017-03-05T02:05:36.976Z,9.21
2017-03-05T02:06:36.961Z,9.17
2017-03-05T02:07:36.551Z,9.19
2017-03-05T02:08:36.917Z,9.14
2017-03-05T02:09:36.519Z,9.02
2017-03-05T02:10:36.889Z,8.98
2017-03-05T02:11:36.559Z,8.91
2017-03-05T02:12:36.442Z,8.93
2017-03-05T02:13:36.850Z,8.94
2017-03-05T02:14:36.456Z,8.93
2017-03-05T02:15:36.467Z,8.93
2017-03-05T02:16:36.741Z,9
2017-03-05T02:17:36.835Z,8.98
2017-03-05T02:18:36.316Z,8.84
2017-03-05T02:19:36.788Z,8.9
2017-03-05T02:20:36.665Z,8.94
2017-03-05T02:21:36.275Z,8.79
2017-03-05T02:22:36.623Z,8.91
2017-03-05T02:23:36.603Z,8.93
2017-03-05T02:24:36.181Z,8.88
2017-03-05T02:25:36.561Z,8.88
2017-03-05T02:26:36.165Z,8.75
2017-03-05T02:27:36.241Z,8.79
2017-03-05T02:28:36.141Z,8.76
2017-03-05T02:29:36.080Z,8.67
2017-03-05T02:30:35.679Z,8.83
2017-03-05T02:31:35.660Z,8.77
2017-03-05T02:32:36.010Z,8.87
2017-03-05T02:33:36.367Z,8.94
2017-03-05T02:34:36.357Z,8.98
2017-03-05T02:35:35.575Z,9
2017-03-05T02:36:36.332Z,8.85
2017-03-05T02:37:35.923Z,8.93
2017-03-05T02:38:36.382Z,8.79
2017-03-05T02:39:36.234Z,8.93
2017-03-05T02:40:36.231Z,8.93
2017-03-05T02:41:35.826Z,8.79
2017-03-05T02:42:35.803Z,8.9
2017-03-05T02:43:36.159Z,8.76
2017-03-05T02:44:36.161Z,8.66
2017-03-05T02:45:36.131Z,8.85
2017-03-05T02:46:35.714Z,8.97
2017-03-05T02:47:35.690Z,9.02
2017-03-05T02:48:35.689Z,9.05
2017-03-05T02:49:35.650Z,9.13
2017-03-05T02:50:35.998Z,9.05
2017-03-05T02:51:35.629Z,9.09
2017-03-05T02:52:36.001Z,8.91
2017-03-05T02:53:35.947Z,8.79
2017-03-05T02:54:35.926Z,8.85
2017-03-05T02:55:35.523Z,8.75
2017-03-05T02:56:35.883Z,8.8
2017-03-05T02:57:35.475Z,8.65
2017-03-05T02:58:35.474Z,8.59
2017-03-05T02:59:35.034Z,8.72
2017-03-05T03:00:35.027Z,8.69
2017-03-05T03:01:35.784Z,8.76
2017-03-05T03:02:35.757Z,8.97
2017-03-05T03:03:35.353Z,9.03
2017-03-05T03:04:35.332Z,9.03
2017-03-05T03:05:35.700Z,9.02
2017-03-05T03:06:35.304Z,8.98
2017-03-05T03:07:35.640Z,9.13
2017-03-05T03:08:35.240Z,9.11
2017-03-05T03:09:35.607Z,9.16
2017-03-05T03:10:35.188Z,9.1
2017-03-05T03:11:35.168Z,9.25
2017-03-05T03:12:35.575Z,9.1
2017-03-05T03:13:35.507Z,9.06
2017-03-05T03:14:35.512Z,9.1
2017-03-05T03:15:35.086Z,9.17
2017-03-05T03:16:34.783Z,9.27
2017-03-05T03:17:35.047Z,9.16
2017-03-05T03:18:34.675Z,8.97
2017-03-05T03:19:35.002Z,8.94
2017-03-05T03:20:34.985Z,9
2017-03-05T03:21:34.953Z,9.09
2017-03-05T03:22:35.329Z,9.14
2017-03-05T03:23:34.921Z,9.05
2017-03-05T03:24:34.891Z,9.11
2017-03-05T03:25:35.251Z,9.22
2017-03-05T03:26:35.257Z,9.19
2017-03-05T03:27:34.427Z,9.22
2017-03-05T03:28:34.809Z,9.42
2017-03-05T03:29:34.783Z,9.19
2017-03-05T03:30:34.752Z,9.11
2017-03-05T03:31:34.740Z,9.05
2017-03-05T03:32:34.725Z,9.19
2017-03-05T03:33:35.095Z,9.11
2017-03-05T03:34:35.059Z,8.95
2017-03-05T03:35:34.654Z,8.91
2017-03-05T03:36:35.045Z,9.09
2017-03-05T03:37:34.629Z,9.21
2017-03-05T03:38:34.593Z,9.06
2017-03-05T03:39:34.571Z,9.05
2017-03-05T03:40:34.551Z,9.02
2017-03-05T03:41:34.513Z,8.93
2017-03-05T03:42:34.891Z,9.11
2017-03-05T03:43:34.872Z,9.02
2017-03-05T03:44:34.140Z,8.93
2017-03-05T03:45:34.039Z,8.91
2017-03-05T03:46:34.810Z,9
2017-03-05T03:47:34.769Z,8.93
2017-03-05T03:48:34.378Z,8.9
2017-03-05T03:49:34.359Z,8.79
2017-03-05T03:50:34.329Z,8.72
2017-03-05T03:51:34.700Z,8.9
2017-03-05T03:52:34.306Z,8.79
2017-03-05T03:53:34.268Z,8.85
2017-03-05T03:54:34.657Z,8.98
2017-03-05T03:55:34.614Z,9.11
2017-03-05T03:56:34.196Z,9.03
2017-03-05T03:57:34.182Z,9.05
2017-03-05T03:58:34.159Z,8.98
2017-03-05T03:59:34.522Z,8.95
2017-03-05T04:00:33.734Z,8.97
2017-03-05T04:01:33.730Z,9.03
2017-03-05T04:02:34.078Z,9.09
2017-03-05T04:03:34.442Z,9.06
2017-03-05T04:04:34.408Z,9.03
2017-03-05T04:05:34.009Z,9.24
2017-03-05T04:06:33.997Z,9.06
2017-03-05T04:07:34.346Z,9.06
2017-03-05T04:08:34.347Z,9.03
2017-03-05T04:09:34.316Z,9.09
2017-03-05T04:10:33.493Z,9.02
2017-03-05T04:11:34.304Z,9.03
2017-03-05T04:12:33.855Z,9.03
2017-03-05T04:13:34.215Z,8.94
2017-03-05T04:14:33.815Z,8.91
2017-03-05T04:15:34.224Z,8.91
2017-03-05T04:16:33.784Z,8.9
2017-03-05T04:17:33.356Z,8.98
2017-03-05T04:18:34.106Z,9.02
2017-03-05T04:19:33.696Z,8.9
2017-03-05T04:20:33.672Z,9.02
2017-03-05T04:21:34.045Z,9.06
2017-03-05T04:22:34.028Z,8.94
2017-03-05T04:23:33.610Z,8.97
2017-03-05T04:24:33.990Z,9.03
2017-03-05T04:25:33.581Z,8.93
2017-03-05T04:26:33.938Z,9
2017-03-05T04:27:33.917Z,9.09
2017-03-05T04:28:33.507Z,9.21
2017-03-05T04:29:33.482Z,9.21
2017-03-05T04:30:33.455Z,9.34
2017-03-05T04:31:33.428Z,9.11
2017-03-05T04:32:33.415Z,9.05
2017-03-05T04:33:33.426Z,9.06
2017-03-05T04:34:33.383Z,9.09
2017-03-05T04:35:33.422Z,9
2017-03-05T04:36:33.332Z,9.13
2017-03-05T04:37:33.713Z,9.19
2017-03-05T04:38:33.671Z,9.11
2017-03-05T04:39:33.280Z,9.06
2017-03-05T04:40:33.251Z,9.05
2017-03-05T04:41:33.608Z,8.94
2017-03-05T04:42:33.589Z,8.91
2017-03-05T04:43:33.655Z,9.02
2017-03-05T04:44:33.154Z,9.1
2017-03-05T04:45:32.838Z,9.06
2017-03-05T04:46:33.504Z,9
2017-03-05T04:47:33.077Z,8.94
2017-03-05T04:48:33.445Z,9.1
2017-03-05T04:49:33.423Z,9.21
2017-03-05T04:50:33.025Z,9.21
2017-03-05T04:51:33.389Z,9.27
2017-03-05T04:52:33.362Z,9.29
2017-03-05T04:53:33.362Z,9.29
2017-03-05T04:54:33.341Z,9.27
2017-03-05T04:55:33.312Z,9.31
2017-03-05T04:56:33.306Z,9.34
2017-03-05T04:57:32.915Z,9.31
2017-03-05T04:58:32.842Z,9.31
2017-03-05T04:59:33.329Z,9.29
2017-03-05T05:00:33.260Z,9.06
2017-03-05T05:01:33.172Z,9.06
2017-03-05T05:02:32.834Z,9.17
2017-03-05T05:03:32.743Z,8.97
2017-03-05T05:04:32.717Z,8.87
2017-03-05T05:05:32.697Z,9.06
2017-03-05T05:06:33.094Z,9.11
2017-03-05T05:07:33.045Z,9.19
2017-03-05T05:08:32.629Z,9.24
2017-03-05T05:09:32.628Z,9.17
2017-03-05T05:10:32.576Z,9.19
2017-03-05T05:11:32.583Z,9.17
2017-03-05T05:12:32.155Z,9.14
2017-03-05T05:13:32.912Z,9.11
2017-03-05T05:14:32.111Z,9.13
2017-03-05T05:15:32.493Z,9.19
2017-03-05T05:16:32.541Z,9.17
2017-03-05T05:17:32.880Z,9.21
2017-03-05T05:18:32.920Z,9.14
2017-03-05T05:19:32.388Z,9.13
2017-03-05T05:20:32.860Z,9.11
2017-03-05T05:21:32.736Z,9
2017-03-05T05:22:32.389Z,8.97
2017-03-05T05:23:32.317Z,8.98
2017-03-05T05:24:32.277Z,9
2017-03-05T05:25:32.259Z,9.02
2017-03-05T05:26:31.837Z,9.05
2017-03-05T05:27:32.706Z,9.02
2017-03-05T05:28:32.190Z,9.05
2017-03-05T05:29:32.550Z,9.09
2017-03-05T05:30:31.792Z,9.03
2017-03-05T05:31:32.133Z,9.09
2017-03-05T05:32:32.120Z,9.16
2017-03-05T05:33:32.463Z,9.25
2017-03-05T05:34:32.450Z,9.21
2017-03-05T05:35:32.048Z,9.02
2017-03-05T05:36:31.616Z,9.06
2017-03-05T05:37:31.984Z,9.1
2017-03-05T05:38:31.987Z,9.06
2017-03-05T05:39:31.958Z,9.06
2017-03-05T05:40:31.918Z,9.13
2017-03-05T05:41:31.913Z,9.19
2017-03-05T05:42:32.307Z,9.19
2017-03-05T05:43:31.886Z,9.17
2017-03-05T05:44:32.248Z,9.31
2017-03-05T05:45:31.835Z,9.16
2017-03-05T05:46:32.175Z,9.11
2017-03-05T05:47:32.184Z,9.21
2017-03-05T05:48:31.774Z,9.16
2017-03-05T05:49:32.143Z,9.17
2017-03-05T05:50:32.114Z,9.1
2017-03-05T05:51:31.693Z,9.06
2017-03-05T05:52:31.676Z,8.97
2017-03-05T05:53:31.642Z,8.98
2017-03-05T05:54:31.635Z,9.05
2017-03-05T05:55:31.600Z,9.02
2017-03-05T05:56:31.967Z,9.02
2017-03-05T05:57:31.965Z,8.94
2017-03-05T05:58:31.933Z,8.93
2017-03-05T05:59:31.118Z,9.05
2017-03-05T06:00:31.498Z,9.03
2017-03-05T06:01:31.495Z,8.95
2017-03-05T06:02:31.466Z,9.03
2017-03-05T06:03:31.826Z,9.02
2017-03-05T06:04:31.806Z,8.95
2017-03-05T06:05:31.396Z,8.84
2017-03-05T06:06:31.347Z,8.95
2017-03-05T06:07:31.354Z,8.98
2017-03-05T06:08:31.704Z,9.03
2017-03-05T06:09:31.693Z,9.13
2017-03-05T06:10:31.282Z,8.95
2017-03-05T06:11:31.691Z,9
2017-03-05T06:12:31.252Z,9.09
2017-03-05T06:13:31.207Z,9.16
2017-03-05T06:14:31.640Z,9.22
2017-03-05T06:15:31.180Z,9.16
2017-03-05T06:16:31.137Z,9.32
2017-03-05T06:17:31.518Z,9.17
2017-03-05T06:18:31.509Z,9.11
2017-03-05T06:19:30.737Z,9.09
2017-03-05T06:20:31.069Z,9.05
2017-03-05T06:21:31.170Z,9.17
2017-03-05T06:22:30.627Z,9.16
2017-03-05T06:23:31.386Z,9.11
2017-03-05T06:24:30.575Z,9.09
2017-03-05T06:25:31.333Z,8.94
2017-03-05T06:26:31.323Z,8.98
2017-03-05T06:27:30.906Z,9.14
2017-03-05T06:28:30.899Z,9.06
2017-03-05T06:29:31.243Z,9.1
2017-03-05T06:30:31.231Z,9.03
2017-03-05T06:31:30.807Z,9.11
2017-03-05T06:32:31.181Z,9.24
2017-03-05T06:33:30.439Z,9.1
2017-03-05T06:34:31.161Z,9.11
2017-03-05T06:35:30.443Z,9.14
2017-03-05T06:36:30.769Z,9.05
2017-03-05T06:37:31.069Z,8.97
2017-03-05T06:38:30.279Z,9.06
2017-03-05T06:39:31.085Z,9
2017-03-05T06:40:30.997Z,8.95
2017-03-05T06:41:30.597Z,8.94
2017-03-05T06:42:30.575Z,9.03
2017-03-05T06:43:30.265Z,9.03
2017-03-05T06:44:30.922Z,9.16
2017-03-05T06:45:30.910Z,9.27
2017-03-05T06:46:30.496Z,9.38
2017-03-05T06:47:30.884Z,9.22
2017-03-05T06:48:30.832Z,9.19
2017-03-05T06:49:30.412Z,9.17
2017-03-05T06:50:30.011Z,9.19
2017-03-05T06:51:30.391Z,9.09
2017-03-05T06:52:30.817Z,9.02
2017-03-05T06:53:30.777Z,9.03
2017-03-05T06:54:30.333Z,9.05
2017-03-05T06:55:30.330Z,9.19
2017-03-05T06:56:30.679Z,9.19
2017-03-05T06:57:30.258Z,9
2017-03-05T06:58:30.638Z,9.1
2017-03-05T06:59:30.620Z,9.06
2017-03-05T07:00:30.579Z,9.1
2017-03-05T07:01:30.179Z,9.19
2017-03-05T07:02:30.535Z,9.29
2017-03-05T07:03:30.505Z,9.17
2017-03-05T07:04:29.714Z,9.21
2017-03-05T07:05:30.494Z,9.03
2017-03-05T07:06:30.050Z,9
2017-03-05T07:07:30.031Z,9
2017-03-05T07:08:30.011Z,8.98
2017-03-05T07:09:30.372Z,9.02
2017-03-05T07:10:29.963Z,9.21
2017-03-05T07:11:29.954Z,9.22
2017-03-05T07:12:29.930Z,9.29
2017-03-05T07:13:29.531Z,9.4
2017-03-05T07:14:30.287Z,9.32
2017-03-05T07:15:30.250Z,9.4
2017-03-05T07:16:30.249Z,9.34
2017-03-05T07:17:30.204Z,9.14
2017-03-05T07:18:29.788Z,9.09
2017-03-05T07:19:30.206Z,9.1
2017-03-05T07:20:30.160Z,9.19
2017-03-05T07:21:29.734Z,9.31
2017-03-05T07:22:29.695Z,9.14
2017-03-05T07:23:29.687Z,9.05
2017-03-05T07:24:30.066Z,9.17
2017-03-05T07:25:30.045Z,9.28
2017-03-05T07:26:30.014Z,9.31
2017-03-05T07:27:29.600Z,9.28
2017-03-05T07:28:29.970Z,9.38
2017-03-05T07:29:29.946Z,9.45
2017-03-05T07:30:29.545Z,9.45
2017-03-05T07:31:29.151Z,9.54
2017-03-05T07:32:29.549Z,9.49
2017-03-05T07:33:29.859Z,9.31
2017-03-05T07:34:29.844Z,9.34
2017-03-05T07:35:29.813Z,9.31
2017-03-05T07:36:29.017Z,9.31
2017-03-05T07:37:29.777Z,9.4
2017-03-05T07:38:29.413Z,9.49
2017-03-05T07:39:29.723Z,9.65
2017-03-05T07:40:29.819Z,9.75
2017-03-05T07:41:29.665Z,9.75
2017-03-05T07:42:28.966Z,9.43
2017-03-05T07:43:28.865Z,9.28
2017-03-05T07:44:29.645Z,9.31
2017-03-05T07:45:29.603Z,9.43
2017-03-05T07:46:29.589Z,9.47
2017-03-05T07:47:29.559Z,9.56
2017-03-05T07:48:29.161Z,9.61
2017-03-05T07:49:29.121Z,9.49
2017-03-05T07:50:29.630Z,9.52
2017-03-05T07:51:28.691Z,9.43
2017-03-05T07:52:29.120Z,9.56
2017-03-05T07:53:29.462Z,9.5
2017-03-05T07:54:29.403Z,9.47
2017-03-05T07:55:29.503Z,9.49
2017-03-05T07:56:28.983Z,9.42
2017-03-05T07:57:28.943Z,9.53
2017-03-05T07:58:28.658Z,9.45
2017-03-05T07:59:29.344Z,9.46
2017-03-05T08:00:29.279Z,9.58
2017-03-05T08:01:29.358Z,9.89
2017-03-05T08:02:29.324Z,10.36
2017-03-05T08:03:28.833Z,10.48
2017-03-05T08:04:29.183Z,10.55
2017-03-05T08:05:28.394Z,10.89
2017-03-05T08:06:28.860Z,10.66
2017-03-05T08:07:29.131Z,10.07
2017-03-05T08:08:28.726Z,10.04
2017-03-05T08:09:28.781Z,10.04
2017-03-05T08:10:28.435Z,10.18
2017-03-05T08:11:29.099Z,9.75
2017-03-05T08:12:28.649Z,9.93
2017-03-05T08:13:28.633Z,9.87
2017-03-05T08:14:28.678Z,9.92
2017-03-05T08:15:28.577Z,9.97
2017-03-05T08:16:28.267Z,10.01
2017-03-05T08:17:28.526Z,10
2017-03-05T08:18:28.526Z,9.87
2017-03-05T08:19:28.895Z,9.8
2017-03-05T08:20:28.479Z,9.98
2017-03-05T08:21:28.463Z,9.9
2017-03-05T08:22:28.433Z,9.92
2017-03-05T08:23:28.843Z,9.93
2017-03-05T08:24:28.809Z,10.03
2017-03-05T08:25:28.416Z,10.08
2017-03-05T08:26:28.370Z,10.11
2017-03-05T08:27:28.815Z,9.95
2017-03-05T08:28:28.313Z,10.04
2017-03-05T08:29:28.346Z,9.93
2017-03-05T08:30:27.888Z,9.65
2017-03-05T08:31:28.632Z,9.56
2017-03-05T08:32:28.238Z,9.56
2017-03-05T08:33:28.668Z,9.79
2017-03-05T08:34:28.588Z,9.92
2017-03-05T08:35:28.607Z,10.03
2017-03-05T08:36:28.163Z,9.92
2017-03-05T08:37:28.526Z,9.97
2017-03-05T08:38:28.506Z,9.92
2017-03-05T08:39:28.106Z,9.92
2017-03-05T08:40:28.084Z,10.03
2017-03-05T08:41:28.433Z,10.07
2017-03-05T08:42:28.471Z,10.03
2017-03-05T08:43:28.383Z,9.86
2017-03-05T08:44:27.981Z,10
2017-03-05T08:45:27.968Z,10.18
2017-03-05T08:46:28.375Z,10.18
2017-03-05T08:47:27.526Z,10.19
2017-03-05T08:48:27.505Z,9.85
2017-03-05T08:49:27.877Z,9.74
2017-03-05T08:50:28.274Z,9.58
2017-03-05T08:51:28.220Z,9.62
2017-03-05T08:52:27.817Z,9.71
2017-03-05T08:53:27.812Z,9.75
2017-03-05T08:54:28.226Z,9.97
2017-03-05T08:55:28.135Z,10.05
2017-03-05T08:56:27.735Z,10.13
2017-03-05T08:57:28.093Z,10.21
2017-03-05T08:58:28.126Z,10.16
2017-03-05T08:59:27.666Z,10.05
2017-03-05T09:00:28.041Z,10.11
2017-03-05T09:01:28.022Z,9.9
2017-03-05T09:02:27.619Z,9.71
2017-03-05T09:03:27.973Z,9.79
2017-03-05T09:04:27.951Z,9.82
2017-03-05T09:05:27.944Z,9.78
2017-03-05T09:06:27.916Z,9.89
2017-03-05T09:07:27.509Z,9.9
2017-03-05T09:08:27.483Z,9.9
2017-03-05T09:09:27.498Z,9.72
2017-03-05T09:10:27.847Z,10.01
2017-03-05T09:11:27.036Z,10.03
2017-03-05T09:12:27.802Z,10.15
2017-03-05T09:13:27.756Z,10.18
2017-03-05T09:14:27.357Z,10.16
2017-03-05T09:15:27.334Z,10.08
2017-03-05T09:16:27.734Z,10.15
2017-03-05T09:17:27.289Z,10.15
2017-03-05T09:18:27.356Z,10.29
2017-03-05T09:19:26.861Z,10.19
2017-03-05T09:20:27.651Z,10.38
2017-03-05T09:21:27.212Z,10.3
2017-03-05T09:22:27.582Z,10.37
2017-03-05T09:23:27.170Z,10.56
2017-03-05T09:24:26.759Z,10.66
2017-03-05T09:25:27.508Z,10.46
2017-03-05T09:26:27.493Z,10.63
2017-03-05T09:27:27.479Z,10.92
2017-03-05T09:28:27.459Z,10.9
2017-03-05T09:29:27.421Z,11.03
2017-03-05T09:30:27.410Z,11.2
2017-03-05T09:31:27.435Z,11.83
2017-03-05T09:32:26.992Z,11.98
2017-03-05T09:33:27.364Z,12.3
2017-03-05T09:34:27.336Z,12.53
2017-03-05T09:35:27.349Z,12.43
2017-03-05T09:36:27.312Z,12.52
2017-03-05T09:37:26.943Z,12.73
2017-03-05T09:38:27.287Z,12.86
2017-03-05T09:39:27.265Z,12.37
2017-03-05T09:40:27.263Z,12.46
2017-03-05T09:41:26.960Z,12.86
2017-03-05T09:42:26.826Z,12.68
2017-03-05T09:43:26.819Z,13.44
2017-03-05T09:44:27.168Z,12.49
2017-03-05T09:45:26.778Z,12.05
2017-03-05T09:46:26.739Z,12.79
2017-03-05T09:47:26.738Z,13.04
2017-03-05T09:48:27.091Z,13.66
2017-03-05T09:49:26.316Z,14
2017-03-05T09:50:27.085Z,14.14
2017-03-05T09:51:27.165Z,13.77
2017-03-05T09:52:26.671Z,13.63
2017-03-05T09:53:27.055Z,14.39
2017-03-05T09:54:26.645Z,13.93
2017-03-05T09:55:27.097Z,13.74
2017-03-05T09:56:26.601Z,13.63
2017-03-05T09:57:26.678Z,12.97
2017-03-05T09:58:26.965Z,13.66
2017-03-05T09:59:26.951Z,14
2017-03-05T10:00:26.929Z,14.17
2017-03-05T10:01:26.530Z,13.1
2017-03-05T10:02:26.141Z,12.79
2017-03-05T10:03:26.971Z,12.4
2017-03-05T10:04:26.880Z,12.49
2017-03-05T10:05:26.926Z,12.53
2017-03-05T10:06:26.836Z,12.21
2017-03-05T10:07:26.458Z,11.9
2017-03-05T10:08:26.427Z,11.9
2017-03-05T10:09:26.431Z,12.12
2017-03-05T10:10:26.017Z,12.06
2017-03-05T10:11:26.000Z,11.97
2017-03-05T10:12:25.977Z,12.03
2017-03-05T10:13:26.847Z,12.02
2017-03-05T10:14:26.708Z,11.79
2017-03-05T10:15:25.915Z,12.05
2017-03-05T10:16:26.720Z,11.83
2017-03-05T10:17:26.327Z,11.98
2017-03-05T10:18:25.889Z,13.08
2017-03-05T10:19:26.286Z,14.07
2017-03-05T10:20:26.234Z,14.48
2017-03-05T10:21:26.611Z,14.22
2017-03-05T10:22:26.198Z,14.33
2017-03-05T10:23:26.568Z,14.55
2017-03-05T10:24:26.165Z,15.43
2017-03-05T10:25:26.550Z,15.29
2017-03-05T10:26:26.145Z,15.32
2017-03-05T10:27:26.135Z,15.46
2017-03-05T10:28:26.525Z,15.8
2017-03-05T10:29:26.488Z,15.53
2017-03-05T10:30:26.069Z,15.44
2017-03-05T10:31:26.468Z,15.4
2017-03-05T10:32:26.455Z,16.02
2017-03-05T10:33:26.441Z,16.43
2017-03-05T10:34:26.422Z,15.29
2017-03-05T10:35:26.043Z,15.1
2017-03-05T10:36:26.015Z,15.53
2017-03-05T10:37:26.014Z,15.85
2017-03-05T10:38:26.000Z,15.69
2017-03-05T10:39:25.976Z,15.61
2017-03-05T10:40:25.969Z,14.87
2017-03-05T10:41:26.345Z,15.31
2017-03-05T10:42:25.930Z,15.37
2017-03-05T10:43:26.326Z,15.46
2017-03-05T10:44:26.285Z,15.8
2017-03-05T10:45:26.272Z,16.45
2017-03-05T10:46:25.885Z,16.58
2017-03-05T10:47:26.283Z,16.23
2017-03-05T10:48:26.253Z,15.1
2017-03-05T10:49:25.844Z,14.15
2017-03-05T10:50:25.446Z,14.36
2017-03-05T10:51:25.449Z,14.53
2017-03-05T10:52:25.819Z,13.6
2017-03-05T10:53:26.194Z,13.21
2017-03-05T10:54:25.805Z,12.92
2017-03-05T10:55:26.160Z,12.57
2017-03-05T10:56:25.769Z,12.74
2017-03-05T10:57:26.132Z,13.41
2017-03-05T10:58:25.719Z,14.05
2017-03-05T10:59:26.105Z,13.92
2017-03-05T11:00:25.687Z,13.7
2017-03-05T11:01:26.086Z,14.35
2017-03-05T11:02:26.056Z,14.89
2017-03-05T11:03:25.647Z,14.57
2017-03-05T11:04:26.030Z,15.35
2017-03-05T11:05:25.627Z,15.35
2017-03-05T11:06:26.014Z,14.32
2017-03-05T11:07:25.204Z,13.66
2017-03-05T11:08:25.572Z,13.52
2017-03-05T11:09:25.608Z,13.21
2017-03-05T11:10:25.169Z,13.11
2017-03-05T11:11:25.535Z,13.19
2017-03-05T11:12:25.511Z,13.44
2017-03-05T11:13:25.900Z,13.49
2017-03-05T11:14:25.481Z,13.29
2017-03-05T11:15:25.162Z,13.25
2017-03-05T11:16:25.850Z,12.96
2017-03-05T11:17:25.441Z,13
2017-03-05T11:18:25.443Z,12.96
2017-03-05T11:19:25.156Z,12.7
2017-03-05T11:20:25.376Z,12.89
2017-03-05T11:21:25.774Z,12.98
2017-03-05T11:22:25.361Z,12.88
2017-03-05T11:23:25.725Z,12.85
2017-03-05T11:24:25.704Z,12.83
2017-03-05T11:25:25.703Z,13.14
2017-03-05T11:26:25.692Z,13.59
2017-03-05T11:27:25.643Z,13.95
2017-03-05T11:28:25.652Z,14.21
2017-03-05T11:29:25.616Z,14.62
2017-03-05T11:30:25.614Z,14.96
2017-03-05T11:31:25.245Z,15.54
2017-03-05T11:32:25.569Z,15.97
2017-03-05T11:33:25.165Z,15.79
2017-03-05T11:34:25.559Z,15.27
2017-03-05T11:35:25.173Z,15.31
2017-03-05T11:36:25.119Z,14.33
2017-03-05T11:37:25.102Z,14.54
2017-03-05T11:38:25.085Z,14.47
2017-03-05T11:39:24.797Z,14.33
2017-03-05T11:40:25.095Z,13.92
2017-03-05T11:41:25.033Z,13.47
2017-03-05T11:42:25.408Z,13.38
2017-03-05T11:43:25.400Z,13.53
2017-03-05T11:44:25.000Z,13.49
2017-03-05T11:45:25.071Z,13.23
2017-03-05T11:46:24.950Z,13.45
2017-03-05T11:47:24.944Z,13.21
2017-03-05T11:48:24.545Z,12.97
2017-03-05T11:49:24.915Z,13.11
2017-03-05T11:50:24.498Z,13.7
2017-03-05T11:51:24.993Z,14.39
2017-03-05T11:52:25.369Z,15.49
2017-03-05T11:53:24.843Z,15.85
2017-03-05T11:54:24.849Z,15.64
2017-03-05T11:55:24.788Z,15.71
2017-03-05T11:56:25.263Z,15.2
2017-03-05T11:57:24.765Z,14.35
2017-03-05T11:58:25.243Z,14.15
2017-03-05T11:59:24.733Z,14.15
2017-03-05T12:00:25.188Z,14.2
2017-03-05T12:01:24.726Z,14
2017-03-05T12:02:25.084Z,14.91
2017-03-05T12:03:25.060Z,15.69
2017-03-05T12:04:24.748Z,15.62
2017-03-05T12:05:24.621Z,15.54
2017-03-05T12:06:24.678Z,15.22
2017-03-05T12:07:24.598Z,14.77
2017-03-05T12:08:24.998Z,13.78
2017-03-05T12:09:24.565Z,13.8
2017-03-05T12:10:24.559Z,13.82
2017-03-05T12:11:24.935Z,13.33
2017-03-05T12:12:24.920Z,13.16
2017-03-05T12:13:24.484Z,13.26
2017-03-05T12:14:24.886Z,13.48
2017-03-05T12:15:24.464Z,13.65
2017-03-05T12:16:24.924Z,13.78
2017-03-05T12:17:24.817Z,13.8
2017-03-05T12:18:24.849Z,14.22
2017-03-05T12:19:24.796Z,13.95
2017-03-05T12:20:24.811Z,13.62
2017-03-05T12:21:24.401Z,13.47
2017-03-05T12:22:24.326Z,13.56
2017-03-05T12:23:24.340Z,13.38
2017-03-05T12:24:24.773Z,13.57
2017-03-05T12:25:24.729Z,13.56
2017-03-05T12:26:24.305Z,13.65
2017-03-05T12:27:24.647Z,14.05
2017-03-05T12:28:24.287Z,14.5
2017-03-05T12:29:24.233Z,14.38
2017-03-05T12:30:24.197Z,14.51
2017-03-05T12:31:24.576Z,14.54
2017-03-05T12:32:24.546Z,14.44
2017-03-05T12:33:24.164Z,14.84
2017-03-05T12:34:24.125Z,15.52
2017-03-05T12:35:24.507Z,15.49
2017-03-05T12:36:24.115Z,15.06
2017-03-05T12:37:24.104Z,14.13
2017-03-05T12:38:24.061Z,14.13
2017-03-05T12:39:24.443Z,14.42
2017-03-05T12:40:24.435Z,14.69
2017-03-05T12:41:24.411Z,14.15
2017-03-05T12:42:24.001Z,14.07
2017-03-05T12:43:23.981Z,13.9
2017-03-05T12:44:24.351Z,13.71
2017-03-05T12:45:24.335Z,13.85
2017-03-05T12:46:24.309Z,13.63
2017-03-05T12:47:23.527Z,13.78
2017-03-05T12:48:24.307Z,13.44
2017-03-05T12:49:24.270Z,13.16
2017-03-05T12:50:23.855Z,12.98
2017-03-05T12:51:23.445Z,12.81
2017-03-05T12:52:23.823Z,12.83
2017-03-05T12:53:23.801Z,12.98
2017-03-05T12:54:24.187Z,12.97
2017-03-05T12:55:23.777Z,12.85
2017-03-05T12:56:24.141Z,13.1
2017-03-05T12:57:23.755Z,13.22
2017-03-05T12:58:24.094Z,13.19
2017-03-05T12:59:23.711Z,13.08
2017-03-05T13:00:24.062Z,12.9
2017-03-05T13:01:24.051Z,12.85
2017-03-05T13:02:23.270Z,12.89
2017-03-05T13:03:24.019Z,12.73
2017-03-05T13:04:23.996Z,13
2017-03-05T13:05:23.619Z,12.96
2017-03-05T13:06:23.586Z,13
2017-03-05T13:07:23.548Z,12.88
2017-03-05T13:08:23.535Z,12.97
2017-03-05T13:09:24.017Z,12.97
2017-03-05T13:10:23.516Z,12.81
2017-03-05T13:11:23.875Z,12.83
2017-03-05T13:12:23.082Z,12.98
2017-03-05T13:13:23.892Z,12.86